createdAt,value
2022-10-01T00:00:05.083Z,10.29
2022-10-01T00:02:38.179Z,10.41
2022-10-01T00:05:07.455Z,10.44
2022-10-01T00:07:39.159Z,10.45
2022-10-01T00:10:06.686Z,10.37
2022-10-01T00:12:34.230Z,10.45
2022-10-01T00:15:05.518Z,10.26
2022-10-01T00:17:33.823Z,10.26
2022-10-01T00:20:00.492Z,10.29
2022-10-01T00:22:26.981Z,10.38
2022-10-01T00:24:53.487Z,10.40
2022-10-01T00:27:20.150Z,10.44
2022-10-01T00:29:46.651Z,10.37
2022-10-01T00:32:13.179Z,10.31
2022-10-01T00:34:39.672Z,10.37
2022-10-01T00:37:06.179Z,10.23
2022-10-01T00:39:32.677Z,10.25
2022-10-01T00:41:59.164Z,10.44
2022-10-01T00:44:35.748Z,10.36
2022-10-01T00:47:31.711Z,10.52
2022-10-01T00:50:07.026Z,10.70
2022-10-01T00:52:35.121Z,10.71
2022-10-01T00:55:04.274Z,10.73
2022-10-01T00:57:31.438Z,10.86
2022-10-01T00:59:59.961Z,10.86
2022-10-01T01:02:26.649Z,10.72
2022-10-01T01:04:53.536Z,10.67
2022-10-01T01:07:20.505Z,10.80
2022-10-01T01:09:47.927Z,10.55
2022-10-01T01:12:36.404Z,10.59
2022-10-01T01:15:17.525Z,10.54
2022-10-01T01:17:50.076Z,10.48
2022-10-01T01:20:50.233Z,10.45
2022-10-01T01:23:16.663Z,10.33
2022-10-01T01:25:56.437Z,10.34
2022-10-01T01:28:34.431Z,10.34
2022-10-01T01:31:04.829Z,10.42
2022-10-01T01:33:34.321Z,10.35
2022-10-01T01:36:08.398Z,10.24
2022-10-01T01:38:38.615Z,10.37
2022-10-01T01:41:06.320Z,10.39
2022-10-01T01:43:38.511Z,10.28
2022-10-01T01:46:06.287Z,10.37
2022-10-01T01:48:36.505Z,10.26
2022-10-01T01:51:10.619Z,10.64
2022-10-01T01:53:38.037Z,10.49
2022-10-01T01:56:06.038Z,10.45
2022-10-01T01:58:32.836Z,10.48
2022-10-01T02:00:59.361Z,10.53
2022-10-01T02:03:26.924Z,10.37
2022-10-01T02:06:21.231Z,10.45
2022-10-01T02:09:18.418Z,10.57
2022-10-01T02:11:55.534Z,10.71
2022-10-01T02:14:55.021Z,10.74
2022-10-01T02:17:29.533Z,10.88
2022-10-01T02:20:03.284Z,10.85
2022-10-01T02:22:43.659Z,10.65
2022-10-01T02:25:11.343Z,10.92
2022-10-01T02:27:53.543Z,10.95
2022-10-01T02:30:20.184Z,11.11
2022-10-01T02:32:47.649Z,11.04
2022-10-01T02:35:17.174Z,10.94
2022-10-01T02:37:45.113Z,10.94
2022-10-01T02:40:15.925Z,11.00
2022-10-01T02:42:46.368Z,10.99
2022-10-01T02:45:13.982Z,11.01
2022-10-01T02:47:43.583Z,10.95
2022-10-01T02:50:10.190Z,10.92
2022-10-01T02:52:42.724Z,10.99
2022-10-01T02:55:13.664Z,10.87
2022-10-01T02:57:40.262Z,10.83
2022-10-01T03:00:16.022Z,10.92
2022-10-01T03:02:42.600Z,11.02
2022-10-01T03:05:09.382Z,10.96
2022-10-01T03:07:36.418Z,10.69
2022-10-01T03:10:04.755Z,10.84
2022-10-01T03:12:31.379Z,10.81
2022-10-01T03:14:57.884Z,10.88
2022-10-01T03:17:24.588Z,10.99
2022-10-01T03:19:51.240Z,11.17
2022-10-01T03:22:19.950Z,10.97
2022-10-01T03:24:46.868Z,10.81
2022-10-01T03:27:13.356Z,10.88
2022-10-01T03:29:39.888Z,10.87
2022-10-01T03:32:06.694Z,10.86
2022-10-01T03:34:33.197Z,10.89
2022-10-01T03:36:59.700Z,10.96
2022-10-01T03:39:26.183Z,10.71
2022-10-01T03:41:52.652Z,10.93
2022-10-01T03:44:19.162Z,10.98
2022-10-01T03:46:45.715Z,11.03
2022-10-01T03:49:12.219Z,10.84
2022-10-01T03:51:38.798Z,10.87
2022-10-01T03:54:06.652Z,11.02
2022-10-01T03:56:33.939Z,11.06
2022-10-01T03:59:00.534Z,11.02
2022-10-01T04:01:27.376Z,10.91
2022-10-01T04:03:53.906Z,11.06
2022-10-01T04:06:20.410Z,10.93
2022-10-01T04:08:46.936Z,11.16
2022-10-01T04:11:13.566Z,11.15
2022-10-01T04:13:40.079Z,11.08
2022-10-01T04:16:07.168Z,11.21
2022-10-01T04:18:34.174Z,11.26
2022-10-01T04:21:00.866Z,11.00
2022-10-01T04:23:27.558Z,10.96
2022-10-01T04:25:54.042Z,10.93
2022-10-01T04:28:20.665Z,10.85
2022-10-01T04:30:47.325Z,11.02
2022-10-01T04:33:17.041Z,10.95
2022-10-01T04:35:43.993Z,10.95
2022-10-01T04:38:16.448Z,11.00
2022-10-01T04:40:43.187Z,10.76
2022-10-01T04:43:11.203Z,10.95
2022-10-01T04:45:37.919Z,11.01
2022-10-01T04:48:05.159Z,11.00
2022-10-01T04:50:31.947Z,11.06
2022-10-01T04:52:58.489Z,10.83
2022-10-01T04:55:25.101Z,10.88
2022-10-01T04:57:51.658Z,10.73
2022-10-01T05:00:26.912Z,10.80
2022-10-01T05:02:54.047Z,10.85
2022-10-01T05:05:22.427Z,10.92
2022-10-01T05:07:49.683Z,10.90
2022-10-01T05:10:21.046Z,11.13
2022-10-01T05:12:48.564Z,11.22
2022-10-01T05:15:16.101Z,11.09
2022-10-01T05:17:43.084Z,11.09
2022-10-01T05:20:16.475Z,11.11
2022-10-01T05:22:44.547Z,10.93
2022-10-01T05:25:10.944Z,11.18
2022-10-01T05:27:37.766Z,11.26
2022-10-01T05:30:05.392Z,11.40
2022-10-01T05:32:32.096Z,11.56
2022-10-01T05:34:58.558Z,11.25
2022-10-01T05:37:25.075Z,11.27
2022-10-01T05:39:51.562Z,11.24
2022-10-01T05:42:18.045Z,11.55
2022-10-01T05:44:47.145Z,11.43
2022-10-01T05:47:14.093Z,11.60
2022-10-01T05:49:44.675Z,11.49
2022-10-01T05:52:11.983Z,11.41
2022-10-01T05:54:38.606Z,11.32
2022-10-01T05:57:05.849Z,11.47
2022-10-01T05:59:32.370Z,11.52
2022-10-01T06:01:59.037Z,11.54
2022-10-01T06:04:25.960Z,11.69
2022-10-01T06:06:56.334Z,11.46
2022-10-01T06:09:22.880Z,11.22
2022-10-01T06:11:49.829Z,11.54
2022-10-01T06:14:16.814Z,11.40
2022-10-01T06:16:43.582Z,11.27
2022-10-01T06:19:10.301Z,11.26
2022-10-01T06:21:37.400Z,11.02
2022-10-01T06:24:04.301Z,10.98
2022-10-01T06:26:31.176Z,11.23
2022-10-01T06:28:57.701Z,11.19
2022-10-01T06:31:24.354Z,11.27
2022-10-01T06:33:50.872Z,11.22
2022-10-01T06:36:17.474Z,11.26
2022-10-01T06:38:44.107Z,11.31
2022-10-01T06:41:10.961Z,11.18
2022-10-01T06:43:37.499Z,11.18
2022-10-01T06:46:05.273Z,11.20
2022-10-01T06:48:32.613Z,11.41
2022-10-01T06:50:59.453Z,11.45
2022-10-01T06:53:28.134Z,11.56
2022-10-01T06:55:54.959Z,11.54
2022-10-01T06:58:26.150Z,11.69
2022-10-01T07:00:58.302Z,11.91
2022-10-01T07:03:24.875Z,11.77
2022-10-01T07:05:51.438Z,11.80
2022-10-01T07:08:18.507Z,11.26
2022-10-01T07:10:45.528Z,11.43
2022-10-01T07:13:15.019Z,11.39
2022-10-01T07:15:41.521Z,11.17
2022-10-01T07:18:11.447Z,11.46
2022-10-01T07:20:41.850Z,11.14
2022-10-01T07:23:14.740Z,11.27
2022-10-01T07:25:42.104Z,11.39
2022-10-01T07:28:16.287Z,11.24
2022-10-01T07:30:47.428Z,11.15
2022-10-01T07:33:22.969Z,11.15
2022-10-01T07:35:49.500Z,11.19
2022-10-01T07:38:16.616Z,11.27
2022-10-01T07:40:43.233Z,11.13
2022-10-01T07:43:09.843Z,11.17
2022-10-01T07:45:36.487Z,11.06
2022-10-01T07:48:04.334Z,11.06
2022-10-01T07:50:30.896Z,11.11
2022-10-01T07:52:58.724Z,11.06
2022-10-01T07:55:26.887Z,11.08
2022-10-01T07:57:55.077Z,11.21
2022-10-01T08:00:23.063Z,11.34
2022-10-01T08:02:50.688Z,11.46
2022-10-01T08:05:19.041Z,11.62
2022-10-01T08:07:46.618Z,11.70
2022-10-01T08:10:13.794Z,11.55
2022-10-01T08:12:42.659Z,11.63
2022-10-01T08:15:10.901Z,11.33
2022-10-01T08:17:40.502Z,11.36
2022-10-01T08:20:08.731Z,11.47
2022-10-01T08:22:39.773Z,11.78
2022-10-01T08:25:08.659Z,11.83
2022-10-01T08:27:35.738Z,11.95
2022-10-01T08:30:02.336Z,11.98
2022-10-01T08:32:28.955Z,11.80
2022-10-01T08:34:57.578Z,11.93
2022-10-01T08:37:28.006Z,11.88
2022-10-01T08:39:55.278Z,12.04
2022-10-01T08:42:36.550Z,11.74
2022-10-01T08:45:09.817Z,11.87
2022-10-01T08:47:39.301Z,11.16
2022-10-01T08:50:13.228Z,11.85
2022-10-01T08:52:48.231Z,12.00
2022-10-01T08:55:19.520Z,12.14
2022-10-01T08:57:49.986Z,12.05
2022-10-01T09:00:18.133Z,11.79
2022-10-01T09:02:46.430Z,11.85
2022-10-01T09:05:21.105Z,12.10
2022-10-01T09:08:15.567Z,12.23
2022-10-01T09:10:53.783Z,12.07
2022-10-01T09:13:41.681Z,12.23
2022-10-01T09:16:31.370Z,12.26
2022-10-01T09:19:08.856Z,12.14
2022-10-01T09:21:43.428Z,11.95
2022-10-01T09:24:16.475Z,12.12
2022-10-01T09:26:47.484Z,12.26
2022-10-01T09:29:17.621Z,12.29
2022-10-01T09:31:47.188Z,12.32
2022-10-01T09:34:28.910Z,11.87
2022-10-01T09:37:05.545Z,12.28
2022-10-01T09:39:38.300Z,12.27
2022-10-01T09:42:04.917Z,12.15
2022-10-01T09:44:32.294Z,11.91
2022-10-01T09:46:58.868Z,12.07
2022-10-01T09:49:43.733Z,12.35
2022-10-01T09:52:15.085Z,12.26
2022-10-01T09:54:57.519Z,12.28
2022-10-01T09:57:32.042Z,12.49
2022-10-01T10:00:17.301Z,12.52
2022-10-01T10:02:49.273Z,12.59
2022-10-01T10:05:22.117Z,12.77
2022-10-01T10:07:54.275Z,12.89
2022-10-01T10:10:27.159Z,12.77
2022-10-01T10:13:04.751Z,12.98
2022-10-01T10:15:32.567Z,12.99
2022-10-01T10:18:08.507Z,13.00
2022-10-01T10:20:40.694Z,12.98
2022-10-01T10:23:19.078Z,13.06
2022-10-01T10:26:02.697Z,12.66
2022-10-01T10:28:43.320Z,12.43
2022-10-01T10:31:15.359Z,12.39
2022-10-01T10:33:51.124Z,12.35
2022-10-01T10:36:19.613Z,12.38
2022-10-01T10:38:49.633Z,12.40
2022-10-01T10:41:19.514Z,11.92
2022-10-01T10:43:48.807Z,11.97
2022-10-01T10:46:46.477Z,12.10
2022-10-01T10:49:29.953Z,12.28
2022-10-01T10:51:58.147Z,12.45
2022-10-01T10:54:29.229Z,12.64
2022-10-01T10:57:36.702Z,12.58
2022-10-01T11:00:24.678Z,12.50
2022-10-01T11:02:59.638Z,12.26
2022-10-01T11:05:30.013Z,12.53
2022-10-01T11:07:59.514Z,12.64
2022-10-01T11:10:44.333Z,12.41
2022-10-01T11:13:18.499Z,12.49
2022-10-01T11:15:51.707Z,12.51
2022-10-01T11:18:55.969Z,12.87
2022-10-01T11:21:28.481Z,13.00
2022-10-01T11:24:07.081Z,12.80
2022-10-01T11:26:45.795Z,13.17
2022-10-01T11:29:25.876Z,12.94
2022-10-01T11:31:52.522Z,12.98
2022-10-01T11:34:22.093Z,12.87
2022-10-01T11:36:59.071Z,12.73
2022-10-01T11:39:26.942Z,13.00
2022-10-01T11:42:02.700Z,12.96
2022-10-01T11:44:52.433Z,13.23
2022-10-01T11:47:36.306Z,12.80
2022-10-01T11:50:06.218Z,12.73
2022-10-01T11:52:43.032Z,13.09
2022-10-01T11:55:32.640Z,13.00
2022-10-01T11:58:23.519Z,12.77
2022-10-01T12:00:58.956Z,12.94
2022-10-01T12:03:30.275Z,13.07
2022-10-01T12:05:57.403Z,13.14
2022-10-01T12:08:27.998Z,13.06
2022-10-01T12:10:59.231Z,12.79
2022-10-01T12:13:35.644Z,13.00
2022-10-01T12:16:11.934Z,12.82
2022-10-01T12:18:52.435Z,13.09
2022-10-01T12:21:34.030Z,13.25
2022-10-01T12:24:05.189Z,13.36
2022-10-01T12:26:45.806Z,13.86
2022-10-01T12:29:27.968Z,13.94
2022-10-01T12:32:04.289Z,14.25
2022-10-01T12:35:27.882Z,14.30
2022-10-01T12:38:36.896Z,14.66
2022-10-01T12:41:22.555Z,14.54
2022-10-01T12:44:07.953Z,14.11
2022-10-01T12:47:06.631Z,14.14
2022-10-01T12:49:40.598Z,14.18
2022-10-01T12:52:20.142Z,13.92
2022-10-01T12:54:46.759Z,14.06
2022-10-01T12:57:26.246Z,14.15
2022-10-01T13:00:00.186Z,13.98
2022-10-01T13:02:56.829Z,14.46
2022-10-01T13:05:29.309Z,14.59
2022-10-01T13:08:15.847Z,14.77
2022-10-01T13:11:20.804Z,14.73
2022-10-01T13:13:51.513Z,15.04
2022-10-01T13:16:42.079Z,14.85
2022-10-01T13:19:30.755Z,14.61
2022-10-01T13:22:35.247Z,14.51
2022-10-01T13:25:32.944Z,14.82
2022-10-01T13:28:07.895Z,14.81
2022-10-01T13:30:56.552Z,14.92
2022-10-01T13:33:38.851Z,14.95
2022-10-01T13:36:07.729Z,15.18
2022-10-01T13:38:44.206Z,15.02
2022-10-01T13:41:24.590Z,15.19
2022-10-01T13:44:28.089Z,15.39
2022-10-01T13:47:09.988Z,15.16
2022-10-01T13:49:37.829Z,15.58
2022-10-01T13:52:04.271Z,15.71
2022-10-01T13:54:38.164Z,16.04
2022-10-01T13:57:09.547Z,16.04
2022-10-01T13:59:37.508Z,16.22
2022-10-01T14:02:29.759Z,16.47
2022-10-01T14:05:06.112Z,16.42
2022-10-01T14:07:36.156Z,16.46
2022-10-01T14:10:03.093Z,16.49
2022-10-01T14:12:50.406Z,16.45
2022-10-01T14:15:39.156Z,16.36
2022-10-01T14:18:11.884Z,16.15
2022-10-01T14:21:05.010Z,15.51
2022-10-01T14:24:06.686Z,15.47
2022-10-01T14:26:59.528Z,15.73
2022-10-01T14:29:52.186Z,15.58
2022-10-01T14:32:50.860Z,15.57
2022-10-01T14:35:24.450Z,15.52
2022-10-01T14:37:51.559Z,15.29
2022-10-01T14:40:22.025Z,15.52
2022-10-01T14:43:01.799Z,15.72
2022-10-01T14:45:29.506Z,15.48
2022-10-01T14:48:04.659Z,15.44
2022-10-01T14:50:34.200Z,15.48
2022-10-01T14:53:00.804Z,15.45
2022-10-01T14:55:27.690Z,15.47
2022-10-01T14:57:55.683Z,15.64
2022-10-01T15:00:29.801Z,15.58
2022-10-01T15:03:15.148Z,15.96
2022-10-01T15:05:42.408Z,15.67
2022-10-01T15:08:19.219Z,15.79
2022-10-01T15:11:07.033Z,15.58
2022-10-01T15:13:39.083Z,15.68
2022-10-01T15:16:11.623Z,15.65
2022-10-01T15:18:42.087Z,15.74
2022-10-01T15:21:16.583Z,15.47
2022-10-01T15:23:43.325Z,15.63
2022-10-01T15:26:14.060Z,15.83
2022-10-01T15:28:40.619Z,15.57
2022-10-01T15:31:07.792Z,15.12
2022-10-01T15:33:40.431Z,15.18
2022-10-01T15:36:16.313Z,14.98
2022-10-01T15:38:44.464Z,15.12
2022-10-01T15:41:31.473Z,15.34
2022-10-01T15:44:04.790Z,15.52
2022-10-01T15:46:36.218Z,15.56
2022-10-01T15:49:27.963Z,15.48
2022-10-01T15:52:25.833Z,15.38
2022-10-01T15:55:00.357Z,15.33
2022-10-01T15:57:35.395Z,15.33
2022-10-01T16:00:03.567Z,15.30
2022-10-01T16:02:34.967Z,15.20
2022-10-01T16:05:07.680Z,15.22
2022-10-01T16:07:37.329Z,15.33
2022-10-01T16:10:38.115Z,15.17
2022-10-01T16:13:42.622Z,14.99
2022-10-01T16:16:21.403Z,14.96
2022-10-01T16:18:56.941Z,15.07
2022-10-01T16:21:31.677Z,15.07
2022-10-01T16:24:04.922Z,15.12
2022-10-01T16:26:46.461Z,15.16
2022-10-01T16:29:15.995Z,14.99
2022-10-01T16:32:02.856Z,14.71
2022-10-01T16:34:39.000Z,15.08
2022-10-01T16:37:15.981Z,14.88
2022-10-01T16:40:04.579Z,14.73
2022-10-01T16:42:48.455Z,14.92
2022-10-01T16:45:18.575Z,15.10
2022-10-01T16:47:48.233Z,15.06
2022-10-01T16:50:23.288Z,14.96
2022-10-01T16:53:09.724Z,14.91
2022-10-01T16:55:42.831Z,14.93
2022-10-01T16:58:19.593Z,14.81
2022-10-01T17:00:51.316Z,14.90
2022-10-01T17:03:21.002Z,14.85
2022-10-01T17:05:54.266Z,14.97
2022-10-01T17:08:27.208Z,15.02
2022-10-01T17:11:12.451Z,14.76
2022-10-01T17:13:41.943Z,14.66
2022-10-01T17:16:24.537Z,14.63
2022-10-01T17:19:01.147Z,14.62
2022-10-01T17:21:33.942Z,14.69
2022-10-01T17:24:14.731Z,14.75
2022-10-01T17:26:45.691Z,14.65
2022-10-01T17:29:18.304Z,14.76
2022-10-01T17:31:54.403Z,14.24
2022-10-01T17:34:30.897Z,14.53
2022-10-01T17:37:06.684Z,14.64
2022-10-01T17:39:53.354Z,14.38
2022-10-01T17:42:30.337Z,14.34
2022-10-01T17:45:06.086Z,14.52
2022-10-01T17:47:48.895Z,14.46
2022-10-01T17:50:19.437Z,14.27
2022-10-01T17:52:52.485Z,14.20
2022-10-01T17:55:26.855Z,14.17
2022-10-01T17:57:56.131Z,14.23
2022-10-01T18:00:27.800Z,14.52
2022-10-01T18:02:56.205Z,14.36
2022-10-01T18:05:24.090Z,14.32
2022-10-01T18:07:55.805Z,14.24
2022-10-01T18:10:27.570Z,14.12
2022-10-01T18:13:04.955Z,14.09
2022-10-01T18:15:38.861Z,14.48
2022-10-01T18:19:51.493Z,14.31
2022-10-01T18:21:15.761Z,14.07
2022-10-01T18:23:49.772Z,14.01
2022-10-01T18:26:21.796Z,14.15
2022-10-01T18:28:56.052Z,14.24
2022-10-01T18:31:37.000Z,13.90
2022-10-01T18:34:21.031Z,14.10
2022-10-01T18:37:01.286Z,14.13
2022-10-01T18:39:45.326Z,13.97
2022-10-01T18:42:38.078Z,14.17
2022-10-01T18:45:24.515Z,13.94
2022-10-01T18:48:22.260Z,13.90
2022-10-01T18:54:45.289Z,13.76
2022-10-01T18:57:43.984Z,13.81
2022-10-01T19:00:34.221Z,13.98
2022-10-01T19:03:48.632Z,13.95
2022-10-01T19:06:51.012Z,13.65
2022-10-01T19:09:34.120Z,13.75
2022-10-01T19:12:24.563Z,13.86
2022-10-01T19:15:13.187Z,14.02
2022-10-01T19:18:00.204Z,13.96
2022-10-01T19:21:05.478Z,13.63
2022-10-01T19:23:41.944Z,13.83
2022-10-01T19:26:40.660Z,13.61
2022-10-01T19:29:38.892Z,13.95
2022-10-01T19:32:31.003Z,13.83
2022-10-01T19:35:26.336Z,14.18
2022-10-01T19:38:11.204Z,14.13
2022-10-01T19:41:05.793Z,14.00
2022-10-01T19:43:38.477Z,13.74
2022-10-01T19:46:23.830Z,13.98
2022-10-01T19:49:15.399Z,14.06
2022-10-01T19:52:01.656Z,13.95
2022-10-01T19:54:39.176Z,14.12
2022-10-01T19:57:33.273Z,14.05
2022-10-01T20:00:10.392Z,14.17
2022-10-01T20:02:57.357Z,14.21
2022-10-01T20:05:54.815Z,13.98
2022-10-01T20:09:05.186Z,14.22
2022-10-01T20:11:56.513Z,14.20
2022-10-01T20:15:10.236Z,14.36
2022-10-01T20:17:54.303Z,14.47
2022-10-01T20:20:27.186Z,14.53
2022-10-01T20:23:26.032Z,14.49
2022-10-01T20:26:15.248Z,14.57
2022-10-01T20:29:04.107Z,14.65
2022-10-01T20:31:55.148Z,14.66
2022-10-01T20:34:31.380Z,14.69
2022-10-01T20:37:10.714Z,14.75
2022-10-01T20:39:50.972Z,14.71
2022-10-01T20:42:37.326Z,14.73
2022-10-01T20:45:06.762Z,14.75
2022-10-01T20:47:42.633Z,14.84
2022-10-01T20:50:37.993Z,14.84
2022-10-01T20:53:20.335Z,14.84
2022-10-01T20:56:19.726Z,14.82
2022-10-01T20:58:56.490Z,14.80
2022-10-01T21:01:30.492Z,14.78
2022-10-01T21:04:10.485Z,14.80
2022-10-01T21:06:45.272Z,14.78
2022-10-01T21:09:25.235Z,14.76
2022-10-01T21:12:24.280Z,14.75
2022-10-01T21:15:08.841Z,14.75
2022-10-01T21:18:26.731Z,14.75
2022-10-01T21:21:38.260Z,14.73
2022-10-01T21:24:44.480Z,14.71
2022-10-01T21:27:32.841Z,14.76
2022-10-01T21:30:14.972Z,14.75
2022-10-01T21:33:02.595Z,14.73
2022-10-01T21:35:35.848Z,14.63
2022-10-01T21:38:28.979Z,14.70
2022-10-01T21:41:38.496Z,14.67
2022-10-01T21:44:35.881Z,14.63
2022-10-01T21:47:34.982Z,14.65
2022-10-01T21:50:10.828Z,14.65
2022-10-01T21:53:00.489Z,14.63
2022-10-01T21:55:33.172Z,14.76
2022-10-01T21:58:30.018Z,14.73
2022-10-01T22:01:15.464Z,14.76
2022-10-01T22:04:41.734Z,14.76
2022-10-01T22:07:40.628Z,14.72
2022-10-01T22:10:16.687Z,14.70
2022-10-01T22:12:46.807Z,14.73
2022-10-01T22:15:55.055Z,14.54
2022-10-01T22:18:33.482Z,14.69
2022-10-01T22:21:18.096Z,14.62
2022-10-01T22:24:04.224Z,14.64
2022-10-01T22:26:40.764Z,14.57
2022-10-01T22:29:15.694Z,14.65
2022-10-01T22:31:46.519Z,14.65
2022-10-01T22:34:20.529Z,14.62
2022-10-01T22:37:00.183Z,14.69
2022-10-01T22:39:38.009Z,14.72
2022-10-01T22:42:17.325Z,14.75
2022-10-01T22:44:48.249Z,14.78
2022-10-01T22:48:03.128Z,14.75
2022-10-01T22:51:11.843Z,14.79
2022-10-01T22:54:03.988Z,14.73
2022-10-01T22:56:47.364Z,14.65
2022-10-01T22:59:46.315Z,14.67
2022-10-01T23:02:41.371Z,14.61
2022-10-01T23:05:15.880Z,14.62
2022-10-01T23:08:05.254Z,14.55
2022-10-01T23:10:33.626Z,14.56
2022-10-01T23:13:05.115Z,14.46
2022-10-01T23:15:46.496Z,14.35
2022-10-01T23:18:34.372Z,14.27
2022-10-01T23:21:26.166Z,14.18
2022-10-01T23:24:21.923Z,14.23
2022-10-01T23:26:57.247Z,14.19
2022-10-01T23:29:42.945Z,14.20
2022-10-01T23:32:31.909Z,14.29
2022-10-01T23:35:13.065Z,14.30
2022-10-01T23:38:07.569Z,14.32
2022-10-01T23:40:38.618Z,14.36
2022-10-01T23:43:33.127Z,14.36
2022-10-01T23:46:06.946Z,14.37
2022-10-01T23:48:57.673Z,14.49
2022-10-01T23:51:27.449Z,14.46
2022-10-01T23:54:26.900Z,14.56
2022-10-01T23:57:02.986Z,14.40
2022-10-01T23:59:39.607Z,14.41
